createdAt,value
2022-11-23T00:00:45.272Z,12.78
2022-11-23T00:03:14.339Z,12.71
2022-11-23T00:05:42.337Z,12.63
2022-11-23T00:08:11.635Z,12.56
2022-11-23T00:10:39.614Z,12.52
2022-11-23T00:13:07.579Z,12.38
2022-11-23T00:15:35.648Z,12.37
2022-11-23T00:18:03.810Z,12.33
2022-11-23T00:20:31.805Z,12.29
2022-11-23T00:22:59.818Z,12.27
2022-11-23T00:25:29.644Z,12.26
2022-11-23T00:27:57.727Z,12.23
2022-11-23T00:30:25.685Z,12.25
2022-11-23T00:32:53.714Z,12.23
2022-11-23T00:35:21.776Z,12.19
2022-11-23T00:37:49.720Z,12.13
2022-11-23T00:40:17.788Z,12.14
2022-11-23T00:42:47.207Z,12.10
2022-11-23T00:45:15.318Z,12.09
2022-11-23T00:47:43.297Z,12.07
2022-11-23T00:50:11.463Z,12.04
2022-11-23T00:52:39.725Z,12.03
2022-11-23T00:55:08.478Z,12.02
2022-11-23T00:57:36.450Z,12.06
2022-11-23T01:00:06.913Z,12.11
2022-11-23T01:02:36.218Z,12.14
2022-11-23T01:05:04.269Z,12.11
2022-11-23T01:07:32.336Z,12.06
2022-11-23T01:10:00.361Z,12.01
2022-11-23T01:12:29.940Z,12.00
2022-11-23T01:14:58.035Z,12.01
2022-11-23T01:17:27.412Z,11.96
2022-11-23T01:19:55.349Z,12.03
2022-11-23T01:22:23.323Z,12.07
2022-11-23T01:24:51.858Z,12.10
2022-11-23T01:27:19.850Z,12.17
2022-11-23T01:29:47.914Z,12.15
2022-11-23T01:32:15.890Z,12.16
2022-11-23T01:34:45.264Z,12.19
2022-11-23T01:37:13.280Z,12.24
2022-11-23T01:39:41.214Z,12.31
2022-11-23T01:42:10.961Z,12.33
2022-11-23T01:44:42.892Z,12.30
2022-11-23T01:47:10.917Z,12.30
2022-11-23T01:49:40.943Z,12.27
2022-11-23T01:52:11.370Z,12.21
2022-11-23T01:54:41.037Z,12.16
2022-11-23T01:57:11.241Z,12.13
2022-11-23T01:59:39.206Z,12.05
2022-11-23T02:02:07.164Z,12.04
2022-11-23T02:04:38.748Z,12.06
2022-11-23T02:07:06.762Z,12.04
2022-11-23T02:09:36.138Z,12.06
2022-11-23T02:12:04.263Z,12.01
2022-11-23T02:14:32.180Z,11.91
2022-11-23T02:17:00.152Z,11.86
2022-11-23T02:19:32.386Z,11.75
2022-11-23T02:22:00.648Z,11.61
2022-11-23T02:24:31.783Z,11.70
2022-11-23T02:27:02.029Z,11.79
2022-11-23T02:29:30.303Z,11.78
2022-11-23T02:31:58.482Z,11.84
2022-11-23T02:34:26.447Z,11.90
2022-11-23T02:36:54.657Z,11.93
2022-11-23T02:39:35.873Z,11.93
2022-11-23T02:42:05.395Z,12.00
2022-11-23T02:44:37.380Z,11.97
2022-11-23T02:47:05.583Z,11.96
2022-11-23T02:49:33.851Z,11.96
2022-11-23T02:52:01.957Z,11.88
2022-11-23T02:54:29.900Z,11.90
2022-11-23T02:56:57.902Z,11.96
2022-11-23T02:59:27.242Z,11.92
2022-11-23T03:01:55.263Z,11.87
2022-11-23T03:04:27.602Z,11.83
2022-11-23T03:06:56.134Z,11.83
2022-11-23T03:09:26.168Z,11.82
2022-11-23T03:11:54.320Z,11.79
2022-11-23T03:14:22.319Z,11.82
2022-11-23T03:16:51.658Z,11.82
2022-11-23T03:19:19.602Z,11.87
2022-11-23T03:21:47.643Z,11.89
2022-11-23T03:24:16.317Z,11.94
2022-11-23T03:26:44.555Z,11.93
2022-11-23T03:29:12.522Z,11.93
2022-11-23T03:31:40.437Z,11.93
2022-11-23T03:34:10.261Z,11.93
2022-11-23T03:36:38.261Z,11.99
2022-11-23T03:39:06.294Z,11.99
2022-11-23T03:41:34.285Z,12.00
2022-11-23T03:44:02.506Z,12.05
2022-11-23T03:46:30.465Z,12.00
2022-11-23T03:48:58.568Z,11.96
2022-11-23T03:51:27.894Z,11.94
2022-11-23T03:53:55.881Z,11.89
2022-11-23T03:56:24.610Z,11.86
2022-11-23T03:58:52.544Z,11.85
2022-11-23T04:01:20.533Z,11.81
2022-11-23T04:03:48.503Z,11.82
2022-11-23T04:06:16.466Z,11.77
2022-11-23T04:08:45.958Z,11.85
2022-11-23T04:11:13.951Z,11.85
2022-11-23T04:13:41.916Z,11.89
2022-11-23T04:16:09.919Z,11.93
2022-11-23T04:18:37.955Z,11.97
2022-11-23T04:21:06.138Z,11.97
2022-11-23T04:23:34.102Z,12.04
2022-11-23T04:26:03.402Z,12.09
2022-11-23T04:28:31.339Z,12.07
2022-11-23T04:30:59.531Z,12.12
2022-11-23T04:33:27.575Z,12.18
2022-11-23T04:35:55.514Z,12.24
2022-11-23T04:38:23.474Z,12.23
2022-11-23T04:40:51.395Z,12.20
2022-11-23T04:43:20.789Z,12.24
2022-11-23T04:45:48.791Z,12.29
2022-11-23T04:48:16.740Z,12.37
2022-11-23T04:50:46.763Z,12.38
2022-11-23T04:53:14.992Z,12.38
2022-11-23T04:55:43.011Z,12.40
2022-11-23T04:58:10.956Z,12.49
2022-11-23T05:00:40.478Z,12.47
2022-11-23T05:03:08.555Z,12.47
2022-11-23T05:05:38.814Z,12.48
2022-11-23T05:08:06.923Z,12.59
2022-11-23T05:10:34.918Z,12.58
2022-11-23T05:13:02.942Z,12.55
2022-11-23T05:15:31.009Z,12.66
2022-11-23T05:18:03.890Z,12.69
2022-11-23T05:20:31.862Z,12.78
2022-11-23T05:22:59.826Z,12.76
2022-11-23T05:25:27.781Z,12.65
2022-11-23T05:27:55.771Z,12.76
2022-11-23T05:30:23.735Z,12.74
2022-11-23T05:32:51.679Z,12.86
2022-11-23T05:35:21.074Z,12.83
2022-11-23T05:37:49.052Z,12.80
2022-11-23T05:40:17.041Z,12.86
2022-11-23T05:42:45.011Z,12.82
2022-11-23T05:45:13.024Z,12.73
2022-11-23T05:47:40.963Z,12.80
2022-11-23T05:50:10.146Z,12.80
2022-11-23T05:52:39.497Z,12.80
2022-11-23T05:55:07.781Z,12.89
2022-11-23T05:57:35.754Z,12.83
2022-11-23T06:00:04.222Z,12.91
2022-11-23T06:02:34.600Z,13.02
2022-11-23T06:05:06.675Z,13.14
2022-11-23T06:07:34.742Z,13.18
2022-11-23T06:10:04.313Z,13.43
2022-11-23T06:12:32.324Z,13.48
2022-11-23T06:15:00.388Z,13.59
2022-11-23T06:17:28.394Z,13.70
2022-11-23T06:19:56.397Z,13.84
2022-11-23T06:22:24.324Z,13.90
2022-11-23T06:24:52.323Z,13.97
2022-11-23T06:27:21.649Z,13.96
2022-11-23T06:29:49.622Z,14.02
2022-11-23T06:32:17.620Z,14.00
2022-11-23T06:34:45.603Z,14.01
2022-11-23T06:37:13.955Z,14.05
2022-11-23T06:39:42.012Z,14.08
2022-11-23T06:42:37.931Z,14.11
2022-11-23T06:44:59.391Z,14.20
2022-11-23T06:47:27.397Z,14.28
2022-11-23T06:49:55.373Z,14.30
2022-11-23T06:52:23.358Z,14.30
2022-11-23T06:54:51.257Z,14.32
2022-11-23T06:57:19.204Z,14.39
2022-11-23T06:59:47.188Z,14.33
2022-11-23T07:02:16.517Z,14.38
2022-11-23T07:04:44.507Z,14.42
2022-11-23T07:07:12.608Z,14.40
2022-11-23T07:09:40.635Z,14.44
2022-11-23T07:12:09.084Z,14.34
2022-11-23T07:14:37.065Z,14.44
2022-11-23T07:17:05.051Z,14.47
2022-11-23T07:19:34.650Z,14.40
2022-11-23T07:22:02.766Z,14.38
2022-11-23T07:24:34.849Z,14.39
2022-11-23T07:27:06.790Z,14.50
2022-11-23T07:29:34.975Z,14.56
2022-11-23T07:32:03.102Z,14.63
2022-11-23T07:34:31.186Z,14.65
2022-11-23T07:37:02.156Z,14.63
2022-11-23T07:39:49.229Z,14.68
2022-11-23T07:42:32.359Z,14.72
2022-11-23T07:45:02.956Z,14.74
2022-11-23T07:47:30.883Z,14.70
2022-11-23T07:49:58.906Z,14.60
2022-11-23T07:52:28.213Z,14.55
2022-11-23T07:54:56.128Z,14.60
2022-11-23T07:57:24.386Z,14.49
2022-11-23T07:59:52.308Z,14.42
2022-11-23T08:02:20.307Z,14.37
2022-11-23T08:04:48.305Z,14.32
2022-11-23T08:07:16.333Z,14.27
2022-11-23T08:09:45.792Z,14.10
2022-11-23T08:12:13.892Z,14.04
2022-11-23T08:14:41.924Z,13.95
2022-11-23T08:17:10.025Z,13.79
2022-11-23T08:19:37.937Z,13.40
2022-11-23T08:22:05.881Z,13.14
2022-11-23T08:24:34.266Z,12.92
2022-11-23T08:27:04.017Z,12.70
2022-11-23T08:29:31.998Z,12.41
2022-11-23T08:32:00.019Z,12.27
2022-11-23T08:34:28.098Z,12.19
2022-11-23T08:36:56.018Z,12.23
2022-11-23T08:39:23.997Z,12.21
2022-11-23T08:41:52.085Z,12.13
2022-11-23T08:44:21.385Z,12.18
2022-11-23T08:46:49.399Z,12.27
2022-11-23T08:49:17.361Z,12.24
2022-11-23T08:51:49.881Z,12.17
2022-11-23T08:54:18.313Z,12.15
2022-11-23T08:56:46.275Z,11.98
2022-11-23T08:59:14.205Z,11.96
2022-11-23T09:01:43.584Z,11.91
2022-11-23T09:04:14.057Z,12.07
2022-11-23T09:06:45.765Z,12.11
2022-11-23T09:09:13.720Z,12.07
2022-11-23T09:11:41.665Z,12.10
2022-11-23T09:14:09.746Z,12.19
2022-11-23T09:16:37.752Z,12.26
2022-11-23T09:19:07.333Z,12.28
2022-11-23T09:21:36.239Z,12.43
2022-11-23T09:24:04.273Z,12.63
2022-11-23T09:26:33.937Z,12.72
2022-11-23T09:29:01.837Z,12.92
2022-11-23T09:31:29.821Z,13.10
2022-11-23T09:33:57.779Z,13.47
2022-11-23T09:36:27.255Z,13.75
2022-11-23T09:38:56.978Z,13.99
2022-11-23T09:41:37.842Z,14.15
2022-11-23T09:44:08.020Z,14.35
2022-11-23T09:46:41.560Z,14.67
2022-11-23T09:49:12.454Z,14.63
2022-11-23T09:51:41.825Z,14.82
2022-11-23T09:54:15.398Z,14.93
2022-11-23T09:56:43.319Z,14.99
2022-11-23T09:59:14.055Z,14.85
2022-11-23T10:01:42.138Z,14.65
2022-11-23T10:04:11.183Z,14.48
2022-11-23T10:06:39.381Z,14.41
2022-11-23T10:09:22.619Z,14.57
2022-11-23T10:12:13.116Z,14.36
2022-11-23T10:14:48.767Z,14.45
2022-11-23T10:17:19.291Z,14.50
2022-11-23T10:19:54.280Z,14.55
2022-11-23T10:22:23.572Z,14.25
2022-11-23T10:24:53.506Z,14.47
2022-11-23T10:27:22.275Z,14.63
2022-11-23T10:29:52.465Z,14.61
2022-11-23T10:32:27.994Z,14.38
2022-11-23T10:35:00.808Z,14.59
2022-11-23T10:37:28.788Z,14.47
2022-11-23T10:39:58.303Z,14.41
2022-11-23T10:42:31.701Z,14.48
2022-11-23T10:45:00.505Z,14.72
2022-11-23T10:47:39.119Z,14.66
2022-11-23T10:50:22.893Z,14.85
2022-11-23T10:52:55.485Z,14.79
2022-11-23T10:55:28.062Z,14.81
2022-11-23T10:57:56.226Z,14.65
2022-11-23T11:00:30.242Z,14.68
2022-11-23T11:02:59.294Z,14.93
2022-11-23T11:06:07.073Z,15.00
2022-11-23T11:08:20.948Z,15.25
2022-11-23T11:10:51.064Z,15.31
2022-11-23T11:13:27.108Z,15.31
2022-11-23T11:15:56.369Z,15.28
2022-11-23T11:18:26.744Z,15.13
2022-11-23T11:20:58.487Z,14.95
2022-11-23T11:23:26.540Z,15.03
2022-11-23T11:26:06.025Z,15.00
2022-11-23T11:28:36.810Z,15.02
2022-11-23T11:31:23.779Z,15.14
2022-11-23T11:33:54.852Z,14.78
2022-11-23T11:36:22.920Z,15.08
2022-11-23T11:39:14.848Z,15.17
2022-11-23T11:41:41.450Z,15.13
2022-11-23T11:44:10.788Z,15.35
2022-11-23T11:46:39.740Z,15.41
2022-11-23T11:49:08.863Z,15.36
2022-11-23T11:51:39.344Z,15.32
2022-11-23T11:54:11.677Z,15.21
2022-11-23T11:56:42.784Z,15.18
2022-11-23T11:59:15.187Z,15.20
2022-11-23T12:01:46.070Z,15.08
2022-11-23T12:04:16.980Z,14.88
2022-11-23T12:06:47.761Z,14.86
2022-11-23T12:09:17.678Z,14.81
2022-11-23T12:11:47.096Z,14.71
2022-11-23T12:14:15.565Z,14.61
2022-11-23T12:16:59.302Z,14.45
2022-11-23T12:19:36.230Z,14.46
2022-11-23T12:22:11.969Z,14.34
2022-11-23T12:24:54.376Z,14.37
2022-11-23T12:27:28.257Z,14.37
2022-11-23T12:30:07.695Z,14.32
2022-11-23T12:32:38.828Z,14.33
2022-11-23T12:35:22.556Z,14.28
2022-11-23T12:37:57.310Z,14.30
2022-11-23T12:40:35.962Z,14.28
2022-11-23T12:43:07.607Z,14.35
2022-11-23T12:45:51.416Z,14.24
2022-11-23T12:48:24.795Z,14.27
2022-11-23T12:50:56.355Z,14.31
2022-11-23T12:53:33.094Z,14.44
2022-11-23T12:56:04.958Z,14.53
2022-11-23T12:58:34.799Z,14.74
2022-11-23T13:01:04.805Z,14.76
2022-11-23T13:03:55.491Z,15.08
2022-11-23T13:10:24.690Z,14.69
2022-11-23T13:13:07.809Z,14.51
2022-11-23T13:15:52.984Z,14.25
2022-11-23T13:18:42.998Z,14.14
2022-11-23T13:21:18.047Z,14.11
2022-11-23T13:23:45.991Z,14.12
2022-11-23T13:26:18.079Z,14.13
2022-11-23T13:28:46.655Z,14.21
2022-11-23T13:31:24.868Z,14.24
2022-11-23T13:33:55.084Z,14.25
2022-11-23T13:40:03.943Z,14.18
2022-11-23T13:42:33.177Z,14.02
2022-11-23T13:45:16.237Z,14.04
2022-11-23T13:48:00.153Z,13.96
2022-11-23T13:50:28.156Z,13.85
2022-11-23T13:52:56.206Z,13.79
2022-11-23T13:55:28.403Z,13.65
2022-11-23T13:58:33.373Z,13.54
2022-11-23T14:01:01.807Z,13.33
2022-11-23T14:03:50.987Z,13.22
2022-11-23T14:06:42.415Z,13.12
2022-11-23T14:09:14.891Z,13.08
2022-11-23T14:11:50.372Z,12.99
2022-11-23T14:14:20.169Z,12.89
2022-11-23T14:17:07.758Z,12.83
2022-11-23T14:19:43.073Z,12.78
2022-11-23T14:22:14.532Z,12.68
2022-11-23T14:25:01.367Z,12.64
2022-11-23T14:27:50.908Z,12.63
2022-11-23T14:30:40.629Z,12.55
2022-11-23T14:33:17.494Z,12.42
2022-11-23T14:35:49.484Z,12.33
2022-11-23T14:38:54.292Z,12.25
2022-11-23T14:41:23.232Z,12.14
2022-11-23T14:43:51.195Z,12.11
2022-11-23T14:46:20.155Z,12.03
2022-11-23T14:48:51.316Z,11.93
2022-11-23T14:51:21.896Z,11.88
2022-11-23T14:53:53.206Z,11.79
2022-11-23T14:56:31.809Z,11.72
2022-11-23T14:59:02.283Z,11.63
2022-11-23T15:01:30.292Z,11.57
2022-11-23T15:03:58.902Z,11.55
2022-11-23T15:06:29.631Z,11.41
2022-11-23T15:09:02.863Z,11.45
2022-11-23T15:11:30.888Z,11.42
2022-11-23T15:14:03.350Z,11.37
2022-11-23T15:16:31.412Z,11.37
2022-11-23T15:18:59.387Z,11.36
2022-11-23T15:21:28.805Z,11.40
2022-11-23T15:23:58.027Z,11.37
2022-11-23T15:26:48.539Z,11.38
2022-11-23T15:29:30.329Z,11.30
2022-11-23T15:34:46.645Z,11.21
2022-11-23T15:37:16.018Z,11.16
2022-11-23T15:39:44.220Z,11.09
2022-11-23T15:42:12.567Z,11.07
2022-11-23T15:44:40.580Z,11.03
2022-11-23T15:47:09.086Z,10.96
2022-11-23T15:49:38.287Z,10.91
2022-11-23T15:52:06.297Z,10.85
2022-11-23T15:54:37.185Z,10.80
2022-11-23T15:57:07.622Z,10.75
2022-11-23T15:59:38.874Z,10.73
2022-11-23T16:02:07.524Z,10.69
2022-11-23T16:04:37.687Z,10.59
2022-11-23T16:07:16.221Z,10.63
2022-11-23T16:09:52.703Z,10.56
2022-11-23T16:12:28.968Z,10.58
2022-11-23T16:14:57.657Z,10.53
2022-11-23T16:17:26.112Z,10.51
2022-11-23T16:19:54.539Z,10.47
2022-11-23T16:22:28.201Z,10.41
2022-11-23T16:25:01.596Z,10.33
2022-11-23T16:27:29.527Z,10.31
2022-11-23T16:30:02.637Z,10.30
2022-11-23T16:32:31.962Z,10.29
2022-11-23T16:35:07.755Z,10.28
2022-11-23T16:37:36.082Z,10.29
2022-11-23T16:40:06.314Z,10.29
2022-11-23T16:42:34.262Z,10.28
2022-11-23T16:45:04.750Z,10.26
2022-11-23T16:47:32.700Z,10.25
2022-11-23T16:50:00.685Z,10.19
2022-11-23T16:52:28.620Z,10.17
2022-11-23T16:54:56.646Z,10.14
2022-11-23T16:57:29.291Z,10.14
2022-11-23T16:59:57.387Z,10.11
2022-11-23T17:02:25.369Z,10.05
2022-11-23T17:04:53.444Z,10.01
2022-11-23T17:07:21.531Z,9.97
2022-11-23T17:09:49.522Z,9.97
2022-11-23T17:12:19.495Z,9.89
2022-11-23T17:14:49.210Z,9.92
2022-11-23T17:17:20.085Z,9.95
2022-11-23T17:19:49.712Z,9.92
2022-11-23T17:22:18.434Z,9.86
2022-11-23T17:24:46.360Z,9.81
2022-11-23T17:27:15.101Z,9.78
2022-11-23T17:29:43.591Z,9.79
2022-11-23T17:32:13.891Z,9.78
2022-11-23T17:34:41.991Z,9.80
2022-11-23T17:37:11.980Z,9.83
2022-11-23T17:39:39.905Z,9.91
2022-11-23T17:42:07.912Z,10.01
2022-11-23T17:44:35.819Z,10.05
2022-11-23T17:47:03.822Z,10.16
2022-11-23T17:49:33.505Z,10.13
2022-11-23T17:52:01.609Z,10.21
2022-11-23T17:54:29.629Z,10.16
2022-11-23T17:56:57.904Z,10.26
2022-11-23T17:59:25.932Z,10.32
2022-11-23T18:01:53.981Z,10.23
2022-11-23T18:04:21.907Z,10.44
2022-11-23T18:06:51.250Z,10.41
2022-11-23T18:09:19.248Z,10.33
2022-11-23T18:11:47.236Z,10.23
2022-11-23T18:14:15.255Z,10.23
2022-11-23T18:16:43.445Z,10.13
2022-11-23T18:19:11.550Z,10.08
2022-11-23T18:21:39.539Z,10.05
2022-11-23T18:24:09.302Z,10.03
2022-11-23T18:26:37.266Z,9.97
2022-11-23T18:29:05.240Z,9.89
2022-11-23T18:31:33.284Z,9.82
2022-11-23T18:34:02.796Z,9.83
2022-11-23T18:36:30.820Z,9.89
2022-11-23T18:38:58.892Z,9.78
2022-11-23T18:41:28.557Z,9.80
2022-11-23T18:43:56.541Z,9.84
2022-11-23T18:46:24.746Z,9.85
2022-11-23T18:48:53.515Z,9.88
2022-11-23T18:51:21.435Z,9.95
2022-11-23T18:53:51.051Z,9.98
2022-11-23T18:56:19.389Z,9.99
2022-11-23T18:58:48.733Z,10.01
2022-11-23T19:01:18.085Z,10.00
2022-11-23T19:03:46.789Z,9.99
2022-11-23T19:06:15.370Z,9.97
2022-11-23T19:08:44.303Z,9.94
2022-11-23T19:11:16.330Z,9.93
2022-11-23T19:13:44.914Z,9.93
2022-11-23T19:16:16.306Z,9.92
2022-11-23T19:18:45.680Z,9.97
2022-11-23T19:21:14.855Z,9.97
2022-11-23T19:23:42.832Z,9.94
2022-11-23T19:26:10.786Z,9.90
2022-11-23T19:28:40.033Z,9.84
2022-11-23T19:31:11.944Z,9.81
2022-11-23T19:33:41.302Z,9.78
2022-11-23T19:36:10.050Z,9.81
2022-11-23T19:38:38.178Z,9.78
2022-11-23T19:41:06.351Z,9.81
2022-11-23T19:43:34.297Z,9.82
2022-11-23T19:46:03.449Z,9.79
2022-11-23T19:48:31.818Z,9.70
2022-11-23T19:51:02.407Z,9.55
2022-11-23T19:53:31.255Z,9.51
2022-11-23T19:56:03.412Z,9.51
2022-11-23T19:58:32.421Z,9.46
2022-11-23T20:01:01.247Z,9.46
2022-11-23T20:03:29.252Z,9.44
2022-11-23T20:05:58.033Z,9.44
2022-11-23T20:08:28.148Z,9.52
2022-11-23T20:10:56.187Z,9.52
2022-11-23T20:13:24.340Z,9.58
2022-11-23T20:15:52.379Z,9.69
2022-11-23T20:18:22.613Z,9.80
2022-11-23T20:20:53.577Z,9.87
2022-11-23T20:23:21.577Z,9.93
2022-11-23T20:25:51.045Z,10.04
2022-11-23T20:28:19.068Z,10.08
2022-11-23T20:30:49.281Z,10.12
2022-11-23T20:33:19.490Z,10.08
2022-11-23T20:35:47.859Z,10.03
2022-11-23T20:38:17.358Z,9.96
2022-11-23T20:40:45.327Z,10.00
2022-11-23T20:43:14.663Z,9.97
2022-11-23T20:45:42.705Z,10.06
2022-11-23T20:48:10.743Z,10.11
2022-11-23T20:50:38.670Z,10.14
2022-11-23T20:53:06.577Z,10.18
2022-11-23T20:55:34.578Z,10.17
2022-11-23T20:58:02.495Z,10.19
2022-11-23T21:00:31.981Z,10.22
2022-11-23T21:02:59.990Z,10.22
2022-11-23T21:05:27.966Z,10.25
2022-11-23T21:07:55.993Z,10.22
2022-11-23T21:10:41.373Z,10.21
2022-11-23T21:13:49.328Z,10.23
2022-11-23T21:16:19.416Z,10.28
2022-11-23T21:18:47.475Z,10.31
2022-11-23T21:21:15.438Z,10.32
2022-11-23T21:23:45.221Z,10.34
2022-11-23T21:26:16.148Z,10.32
2022-11-23T21:28:44.354Z,10.36
2022-11-23T21:31:15.286Z,10.42
2022-11-23T21:33:44.963Z,10.39
2022-11-23T21:36:13.185Z,10.41
2022-11-23T21:38:41.254Z,10.42
2022-11-23T21:41:10.939Z,10.40
2022-11-23T21:43:39.106Z,10.46
2022-11-23T21:46:08.223Z,10.46
2022-11-23T21:48:36.550Z,10.54
2022-11-23T21:51:06.756Z,10.56
2022-11-23T21:53:34.951Z,10.51
2022-11-23T21:56:03.707Z,10.54
2022-11-23T21:58:31.727Z,10.60
2022-11-23T22:01:05.221Z,10.65
2022-11-23T22:03:34.292Z,10.67
2022-11-23T22:06:02.236Z,10.69
2022-11-23T22:08:31.606Z,10.70
2022-11-23T22:10:59.648Z,10.65
2022-11-23T22:13:30.475Z,10.67
2022-11-23T22:16:02.021Z,10.62
2022-11-23T22:18:30.020Z,10.57
2022-11-23T22:21:04.119Z,10.53
2022-11-23T22:23:33.469Z,10.52
2022-11-23T22:26:02.536Z,10.53
2022-11-23T22:28:32.811Z,10.55
2022-11-23T22:31:02.881Z,10.56
2022-11-23T22:33:30.840Z,10.59
2022-11-23T22:36:01.282Z,10.56
2022-11-23T22:38:29.823Z,10.59
2022-11-23T22:40:59.144Z,10.57
2022-11-23T22:43:27.133Z,10.61
2022-11-23T22:45:55.141Z,10.59
2022-11-23T22:48:23.091Z,10.58
2022-11-23T22:50:57.570Z,10.65
2022-11-23T22:53:25.590Z,10.55
2022-11-23T22:55:53.607Z,10.58
2022-11-23T22:58:22.962Z,10.60
2022-11-23T23:00:50.929Z,10.57
2022-11-23T23:03:19.143Z,10.59
2022-11-23T23:05:54.915Z,10.61
2022-11-23T23:08:23.278Z,10.56
2022-11-23T23:10:51.213Z,10.51
2022-11-23T23:13:19.172Z,10.42
2022-11-23T23:15:48.530Z,10.44
2022-11-23T23:18:16.663Z,10.48
2022-11-23T23:20:45.186Z,10.47
2022-11-23T23:23:13.905Z,10.42
2022-11-23T23:25:41.890Z,10.36
2022-11-23T23:28:09.947Z,10.30
2022-11-23T23:30:37.967Z,10.31
2022-11-23T23:33:07.302Z,10.28
2022-11-23T23:35:36.660Z,10.28
2022-11-23T23:38:04.715Z,10.24
2022-11-23T23:40:32.625Z,10.26
2022-11-23T23:43:00.601Z,10.16
2022-11-23T23:45:28.641Z,10.11
2022-11-23T23:47:58.947Z,10.09
2022-11-23T23:50:28.246Z,10.08
2022-11-23T23:52:56.256Z,10.05
2022-11-23T23:55:24.292Z,10.08
2022-11-23T23:57:52.815Z,10.06
